createdAt,value
2023-05-12T00:00:08.487Z,33.47
2023-05-12T00:02:35.321Z,35.63
2023-05-12T00:05:02.295Z,33.83
2023-05-12T00:07:29.159Z,32.20
2023-05-12T00:09:55.934Z,33.03
2023-05-12T00:12:22.784Z,32.33
2023-05-12T00:14:49.547Z,35.67
2023-05-12T00:17:16.308Z,25.20
2023-05-12T00:19:44.120Z,30.43
2023-05-12T00:22:11.683Z,31.23
2023-05-12T00:24:39.814Z,33.43
2023-05-12T00:27:07.383Z,27.10
2023-05-12T00:29:34.573Z,26.90
2023-05-12T00:32:01.601Z,27.47
2023-05-12T00:34:28.684Z,29.03
2023-05-12T00:36:55.454Z,32.50
2023-05-12T00:39:22.897Z,32.60
2023-05-12T00:41:57.907Z,32.10
2023-05-12T00:44:24.720Z,35.80
2023-05-12T00:46:52.729Z,36.20
2023-05-12T00:49:20.456Z,33.90
2023-05-12T00:51:47.498Z,33.50
2023-05-12T00:54:14.443Z,34.57
2023-05-12T00:56:41.320Z,33.43
2023-05-12T00:59:08.786Z,34.00
2023-05-12T01:01:36.046Z,40.10
2023-05-12T01:04:03.216Z,35.20
2023-05-12T01:06:38.834Z,40.83
2023-05-12T01:09:06.198Z,37.40
2023-05-12T01:11:33.024Z,35.20
2023-05-12T01:13:59.789Z,37.07
2023-05-12T01:16:33.790Z,37.07
2023-05-12T01:19:03.934Z,34.83
2023-05-12T01:21:31.979Z,35.60
2023-05-12T01:24:01.956Z,35.30
2023-05-12T01:26:29.938Z,35.33
2023-05-12T01:28:57.261Z,36.07
2023-05-12T01:31:25.043Z,35.57
2023-05-12T01:33:51.862Z,34.97
2023-05-12T01:36:18.551Z,35.80
2023-05-12T01:38:45.349Z,34.23
2023-05-12T01:41:12.143Z,35.77
2023-05-12T01:43:38.898Z,36.80
2023-05-12T01:46:05.743Z,37.00
2023-05-12T01:48:32.558Z,38.30
2023-05-12T01:51:02.357Z,39.00
2023-05-12T01:53:29.115Z,38.57
2023-05-12T01:55:55.868Z,40.20
2023-05-12T01:58:23.086Z,38.90
2023-05-12T02:00:49.783Z,38.63
2023-05-12T02:03:16.675Z,38.27
2023-05-12T02:05:43.516Z,38.57
2023-05-12T02:08:10.527Z,35.87
2023-05-12T02:10:37.697Z,34.17
2023-05-12T02:13:04.452Z,37.17
2023-05-12T02:15:31.844Z,35.40
2023-05-12T02:17:58.803Z,35.53
2023-05-12T02:20:26.193Z,35.50
2023-05-12T02:22:52.956Z,35.90
2023-05-12T02:25:19.731Z,32.73
2023-05-12T02:27:46.610Z,33.37
2023-05-12T02:30:13.545Z,33.87
2023-05-12T02:32:40.481Z,32.83
2023-05-12T02:35:08.168Z,33.50
2023-05-12T02:37:34.927Z,32.50
2023-05-12T02:40:01.772Z,33.77
2023-05-12T02:42:33.739Z,33.70
2023-05-12T02:45:00.645Z,34.30
2023-05-12T02:47:31.374Z,36.47
2023-05-12T02:49:58.268Z,34.20
2023-05-12T02:52:25.072Z,36.40
2023-05-12T02:54:51.914Z,38.10
2023-05-12T02:57:18.758Z,37.70
2023-05-12T02:59:45.539Z,37.00
2023-05-12T03:02:12.444Z,35.67
2023-05-12T03:04:39.319Z,37.10
2023-05-12T03:07:06.113Z,35.47
2023-05-12T03:09:32.980Z,36.03
2023-05-12T03:11:59.711Z,34.53
2023-05-12T03:14:28.630Z,36.70
2023-05-12T03:16:55.543Z,36.20
2023-05-12T03:19:22.322Z,35.87
2023-05-12T03:21:49.094Z,35.33
2023-05-12T03:24:17.139Z,35.00
2023-05-12T03:26:43.914Z,35.00
2023-05-12T03:29:10.666Z,36.00
2023-05-12T03:31:37.563Z,31.50
2023-05-12T03:34:04.409Z,34.83
2023-05-12T03:36:31.473Z,34.73
2023-05-12T03:38:58.233Z,33.40
2023-05-12T03:41:24.969Z,35.47
2023-05-12T03:43:51.774Z,33.50
2023-05-12T03:46:18.626Z,33.30
2023-05-12T03:48:45.502Z,36.07
2023-05-12T03:51:12.292Z,35.30
2023-05-12T03:53:42.447Z,33.60
2023-05-12T03:56:09.350Z,37.43
2023-05-12T03:58:36.452Z,34.57
2023-05-12T04:01:03.300Z,34.77
2023-05-12T04:03:31.180Z,35.20
2023-05-12T04:05:59.519Z,35.73
2023-05-12T04:08:26.716Z,34.70
2023-05-12T04:10:58.706Z,35.17
2023-05-12T04:13:26.052Z,35.03
2023-05-12T04:15:55.746Z,34.57
2023-05-12T04:18:22.968Z,37.33
2023-05-12T04:20:49.805Z,35.23
2023-05-12T04:23:16.740Z,34.20
2023-05-12T04:25:43.537Z,36.00
2023-05-12T04:28:12.079Z,34.10
2023-05-12T04:30:42.750Z,33.63
2023-05-12T04:33:09.983Z,35.50
2023-05-12T04:35:37.004Z,33.00
2023-05-12T04:38:04.495Z,35.50
2023-05-12T04:40:34.092Z,32.87
2023-05-12T04:43:01.579Z,34.50
2023-05-12T04:45:28.392Z,34.40
2023-05-12T04:47:55.163Z,32.10
2023-05-12T04:50:21.999Z,32.87
2023-05-12T04:52:48.888Z,33.90
2023-05-12T04:55:15.674Z,31.90
2023-05-12T04:57:42.449Z,33.00
2023-05-12T05:00:09.839Z,31.87
2023-05-12T05:02:36.732Z,30.37
2023-05-12T05:05:03.732Z,32.00
2023-05-12T05:07:31.187Z,31.90
2023-05-12T05:09:57.919Z,34.10
2023-05-12T05:12:25.656Z,31.70
2023-05-12T05:14:52.524Z,31.43
2023-05-12T05:17:19.308Z,32.50
2023-05-12T05:19:57.444Z,32.57
2023-05-12T05:22:25.572Z,32.23
2023-05-12T05:24:52.667Z,31.20
2023-05-12T05:27:19.497Z,32.27
2023-05-12T05:29:46.459Z,33.27
2023-05-12T05:32:13.245Z,30.33
2023-05-12T05:34:40.088Z,30.67
2023-05-12T05:37:07.549Z,30.10
2023-05-12T05:39:34.700Z,30.13
2023-05-12T05:42:01.522Z,29.83
2023-05-12T05:44:28.273Z,30.00
2023-05-12T05:46:55.091Z,28.50
2023-05-12T05:49:21.913Z,28.23
2023-05-12T05:51:48.652Z,27.93
2023-05-12T05:54:15.640Z,29.30
2023-05-12T05:56:42.421Z,26.30
2023-05-12T05:59:09.851Z,27.00
2023-05-12T06:01:36.887Z,26.20
2023-05-12T06:04:03.887Z,25.27
2023-05-12T06:06:31.362Z,25.67
2023-05-12T06:08:58.176Z,25.10
2023-05-12T06:11:24.950Z,23.70
2023-05-12T06:13:51.705Z,22.67
2023-05-12T06:16:18.708Z,22.13
2023-05-12T06:18:45.533Z,21.77
2023-05-12T06:21:12.335Z,21.80
2023-05-12T06:23:39.046Z,20.40
2023-05-12T06:26:07.785Z,19.60
2023-05-12T06:28:34.569Z,18.60
2023-05-12T06:31:01.343Z,18.40
2023-05-12T06:33:28.169Z,17.90
2023-05-12T06:35:55.105Z,17.50
2023-05-12T06:38:21.861Z,16.00
2023-05-12T06:40:48.669Z,16.30
2023-05-12T06:43:15.418Z,16.53
2023-05-12T06:45:43.110Z,15.23
2023-05-12T06:48:10.383Z,15.30
2023-05-12T06:50:37.241Z,14.87
2023-05-12T06:53:06.316Z,15.60
2023-05-12T06:55:33.201Z,15.93
2023-05-12T06:57:59.997Z,15.00
2023-05-12T07:00:26.916Z,17.37
2023-05-12T07:02:53.871Z,16.47
2023-05-12T07:05:21.220Z,16.30
2023-05-12T07:07:48.261Z,16.50
2023-05-12T07:10:15.319Z,16.33
2023-05-12T07:12:42.215Z,15.87
2023-05-12T07:15:10.421Z,16.07
2023-05-12T07:17:37.335Z,17.00
2023-05-12T07:20:05.626Z,16.10
2023-05-12T07:22:32.971Z,16.70
2023-05-12T07:25:00.234Z,17.20
2023-05-12T07:27:27.113Z,17.77
2023-05-12T07:29:54.309Z,16.43
2023-05-12T07:32:21.067Z,15.10
2023-05-12T07:34:48.285Z,14.47
2023-05-12T07:37:15.015Z,14.70
2023-05-12T07:39:41.844Z,14.50
2023-05-12T07:42:09.049Z,15.53
2023-05-12T07:44:36.329Z,13.80
2023-05-12T07:47:03.256Z,13.93
2023-05-12T07:49:30.027Z,13.27
2023-05-12T07:51:56.795Z,12.80
2023-05-12T07:54:23.685Z,12.83
2023-05-12T07:56:50.607Z,11.77
2023-05-12T07:59:17.608Z,11.17
2023-05-12T08:01:44.444Z,10.93
2023-05-12T08:04:11.653Z,11.37
2023-05-12T08:06:38.493Z,11.10
2023-05-12T08:09:05.256Z,11.13
2023-05-12T08:11:32.095Z,10.53
2023-05-12T08:13:58.856Z,10.77
2023-05-12T08:16:25.758Z,11.13
2023-05-12T08:18:52.645Z,11.00
2023-05-12T08:21:19.429Z,9.60
2023-05-12T08:23:46.334Z,11.20
2023-05-12T08:26:13.551Z,9.37
2023-05-12T08:28:40.318Z,9.10
2023-05-12T08:31:07.367Z,9.90
2023-05-12T08:33:37.003Z,9.37
2023-05-12T08:36:04.227Z,8.80
2023-05-12T08:38:32.477Z,9.50
2023-05-12T08:41:16.153Z,9.50
2023-05-12T08:43:45.542Z,9.80
2023-05-12T08:46:13.332Z,11.03
2023-05-12T08:48:41.356Z,10.77
2023-05-12T08:51:13.177Z,10.53
2023-05-12T08:53:41.560Z,11.80
2023-05-12T08:58:42.214Z,13.37
2023-05-12T09:01:12.190Z,12.20
2023-05-12T09:03:39.342Z,13.60
2023-05-12T09:06:07.254Z,13.50
2023-05-12T09:08:35.695Z,13.60
2023-05-12T09:11:03.265Z,13.60
2023-05-12T09:13:48.126Z,13.63
2023-05-12T09:16:17.906Z,12.47
2023-05-12T09:18:52.300Z,13.00
2023-05-12T09:21:19.889Z,12.30
2023-05-12T09:23:59.258Z,11.77
2023-05-12T09:26:28.191Z,11.30
2023-05-12T09:29:08.509Z,12.00
2023-05-12T09:31:35.838Z,10.77
2023-05-12T09:34:08.140Z,10.10
2023-05-12T09:36:35.297Z,9.93
2023-05-12T09:39:05.006Z,10.80
2023-05-12T09:41:35.028Z,10.43
2023-05-12T09:44:02.372Z,10.80
2023-05-12T09:46:29.264Z,11.07
2023-05-12T09:49:00.256Z,11.40
2023-05-12T09:51:27.729Z,10.70
2023-05-12T09:53:54.661Z,11.43
2023-05-12T09:56:22.024Z,12.80
2023-05-12T09:58:50.133Z,12.93
2023-05-12T10:01:24.012Z,13.50
2023-05-12T10:04:00.199Z,12.70
2023-05-12T10:06:28.463Z,12.50
2023-05-12T10:09:36.367Z,12.77
2023-05-12T10:12:04.645Z,14.07
2023-05-12T10:14:32.023Z,13.97
2023-05-12T10:17:00.271Z,12.63
2023-05-12T10:19:28.597Z,11.73
2023-05-12T10:21:57.441Z,12.63
2023-05-12T10:24:28.329Z,12.10
2023-05-12T10:26:56.561Z,13.10
2023-05-12T10:29:30.130Z,12.37
2023-05-12T10:31:57.994Z,13.40
2023-05-12T10:34:32.708Z,13.17
2023-05-12T10:36:59.773Z,12.00
2023-05-12T10:39:30.765Z,12.60
2023-05-12T10:42:07.323Z,11.50
2023-05-12T10:44:35.833Z,13.00
2023-05-12T10:47:13.314Z,12.97
2023-05-12T10:49:41.765Z,12.87
2023-05-12T10:52:11.864Z,12.93
2023-05-12T10:54:45.767Z,14.10
2023-05-12T10:57:21.093Z,12.67
2023-05-12T10:59:59.800Z,12.33
2023-05-12T11:02:36.052Z,12.23
2023-05-12T11:05:10.626Z,11.17
2023-05-12T11:07:37.965Z,12.23
2023-05-12T11:10:06.134Z,10.33
2023-05-12T11:12:38.285Z,10.57
2023-05-12T11:15:07.023Z,10.73
2023-05-12T11:17:37.720Z,9.70
2023-05-12T11:20:05.040Z,9.10
2023-05-12T11:22:32.066Z,9.00
2023-05-12T11:24:59.349Z,9.30
2023-05-12T11:27:26.374Z,8.80
2023-05-12T11:30:01.368Z,7.60
2023-05-12T11:32:29.616Z,6.30
2023-05-12T11:35:07.292Z,6.60
2023-05-12T11:37:40.991Z,6.00
2023-05-12T11:40:22.344Z,6.30
2023-05-12T11:42:52.638Z,5.70
2023-05-12T11:45:30.590Z,5.20
2023-05-12T11:48:14.942Z,5.93
2023-05-12T11:50:48.453Z,5.60
2023-05-12T11:53:17.408Z,5.60
2023-05-12T11:55:51.817Z,6.37
2023-05-12T11:58:21.964Z,5.10
2023-05-12T12:00:49.713Z,5.53
2023-05-12T12:03:17.071Z,5.40
2023-05-12T12:05:45.546Z,5.43
2023-05-12T12:08:16.219Z,5.33
2023-05-12T12:10:46.969Z,5.10
2023-05-12T12:13:21.250Z,4.93
2023-05-12T12:15:49.152Z,5.30
2023-05-12T12:18:16.687Z,5.30
2023-05-12T12:20:44.031Z,6.00
2023-05-12T12:23:11.159Z,4.90
2023-05-12T12:25:37.983Z,5.80
2023-05-12T12:28:05.467Z,4.90
2023-05-12T12:30:32.242Z,5.47
2023-05-12T12:32:58.951Z,5.23
2023-05-12T12:35:25.819Z,5.40
2023-05-12T12:37:52.839Z,4.50
2023-05-12T12:40:20.192Z,5.10
2023-05-12T12:42:47.239Z,4.50
2023-05-12T12:45:14.445Z,4.63
2023-05-12T12:47:41.665Z,5.20
2023-05-12T12:50:10.490Z,4.90
2023-05-12T12:52:38.524Z,5.37
2023-05-12T12:55:08.673Z,5.23
2023-05-12T12:57:36.277Z,4.97
2023-05-12T13:00:04.634Z,5.10
2023-05-12T13:02:31.561Z,5.10
2023-05-12T13:04:58.364Z,5.00
2023-05-12T13:07:25.128Z,4.60
2023-05-12T13:09:51.901Z,4.47
2023-05-12T13:12:18.638Z,4.70
2023-05-12T13:14:45.554Z,5.00
2023-05-12T13:17:12.711Z,4.13
2023-05-12T13:19:39.502Z,4.23
2023-05-12T13:22:06.361Z,4.07
2023-05-12T13:24:33.173Z,4.60
2023-05-12T13:26:59.970Z,4.40
2023-05-12T13:29:26.797Z,4.37
2023-05-12T13:31:54.389Z,4.57
2023-05-12T13:34:21.839Z,4.17
2023-05-12T13:36:48.668Z,3.90
2023-05-12T13:39:16.396Z,4.23
2023-05-12T13:41:44.008Z,4.43
2023-05-12T13:44:10.916Z,4.50
2023-05-12T13:46:37.859Z,4.47
2023-05-12T13:49:04.565Z,4.53
2023-05-12T13:51:32.410Z,4.67
2023-05-12T13:53:59.250Z,4.40
2023-05-12T13:56:26.062Z,5.20
2023-05-12T13:58:52.814Z,4.70
2023-05-12T14:01:19.805Z,4.80
2023-05-12T14:03:46.696Z,5.23
2023-05-12T14:06:13.510Z,5.70
2023-05-12T14:08:41.670Z,5.03
2023-05-12T14:11:09.096Z,5.23
2023-05-12T14:13:35.900Z,5.13
2023-05-12T14:16:02.795Z,5.53
2023-05-12T14:18:29.632Z,5.27
2023-05-12T14:20:57.097Z,5.40
2023-05-12T14:23:23.889Z,6.87
2023-05-12T14:25:50.652Z,5.70
2023-05-12T14:28:17.423Z,5.13
2023-05-12T14:30:45.204Z,5.40
2023-05-12T14:33:12.257Z,5.30
2023-05-12T14:35:39.077Z,4.90
2023-05-12T14:38:05.929Z,5.40
2023-05-12T14:40:32.674Z,5.20
2023-05-12T14:43:00.108Z,4.73
2023-05-12T14:45:27.196Z,5.53
2023-05-12T14:47:54.578Z,5.30
2023-05-12T14:50:21.715Z,4.70
2023-05-12T14:52:48.760Z,4.87
2023-05-12T14:55:17.243Z,5.00
2023-05-12T14:57:44.756Z,5.10
2023-05-12T15:00:13.361Z,5.50
2023-05-12T15:02:41.456Z,5.17
2023-05-12T15:05:09.769Z,4.60
2023-05-12T15:07:37.198Z,4.97
2023-05-12T15:10:04.716Z,4.63
2023-05-12T15:12:32.198Z,4.20
2023-05-12T15:15:04.416Z,4.87
2023-05-12T15:17:31.710Z,4.67
2023-05-12T15:19:58.678Z,4.90
2023-05-12T15:22:25.428Z,4.80
2023-05-12T15:24:52.192Z,4.97
2023-05-12T15:27:19.019Z,5.20
2023-05-12T15:29:45.847Z,4.73
2023-05-12T15:32:12.564Z,5.27
2023-05-12T15:34:39.464Z,5.10
2023-05-12T15:37:06.714Z,4.60
2023-05-12T15:39:33.572Z,5.40
2023-05-12T15:42:01.041Z,4.97
2023-05-12T15:44:27.925Z,4.83
2023-05-12T15:46:54.962Z,4.90
2023-05-12T15:49:21.900Z,5.60
2023-05-12T15:51:48.837Z,4.67
2023-05-12T15:54:15.748Z,5.23
2023-05-12T15:56:43.059Z,4.03
2023-05-12T15:59:11.403Z,4.50
2023-05-12T16:01:38.309Z,4.20
2023-05-12T16:04:05.230Z,4.53
2023-05-12T16:06:32.030Z,4.13
2023-05-12T16:08:58.863Z,4.23
2023-05-12T16:11:25.578Z,4.70
2023-05-12T16:13:53.270Z,4.50
2023-05-12T16:16:20.091Z,4.63
2023-05-12T16:18:47.027Z,4.60
2023-05-12T16:21:13.852Z,4.80
2023-05-12T16:23:40.675Z,5.00
2023-05-12T16:26:07.461Z,4.97
2023-05-12T16:28:34.661Z,4.17
2023-05-12T16:31:02.404Z,4.80
2023-05-12T16:33:29.363Z,4.83
2023-05-12T16:35:56.259Z,4.97
2023-05-12T16:38:23.228Z,4.33
2023-05-12T16:40:50.331Z,4.70
2023-05-12T16:43:17.093Z,4.83
2023-05-12T16:45:43.984Z,4.57
2023-05-12T16:48:10.695Z,4.60
2023-05-12T16:50:37.407Z,4.63
2023-05-12T16:53:04.180Z,4.83
2023-05-12T16:55:30.929Z,4.90
2023-05-12T16:57:57.764Z,4.70
2023-05-12T17:00:24.597Z,4.87
2023-05-12T17:02:51.500Z,5.30
2023-05-12T17:05:18.471Z,4.57
2023-05-12T17:07:46.037Z,4.40
2023-05-12T17:10:12.774Z,4.70
2023-05-12T17:12:39.565Z,5.27
2023-05-12T17:15:22.348Z,5.07
2023-05-12T17:17:49.155Z,5.10
2023-05-12T17:20:15.977Z,5.37
2023-05-12T17:22:47.097Z,5.10
2023-05-12T17:25:14.053Z,5.50
2023-05-12T17:27:40.806Z,4.87
2023-05-12T17:30:08.259Z,5.47
2023-05-12T17:32:35.118Z,5.17
2023-05-12T17:35:02.261Z,4.70
2023-05-12T17:37:30.378Z,4.80
2023-05-12T17:39:57.416Z,4.77
2023-05-12T17:42:24.379Z,5.07
2023-05-12T17:44:51.719Z,4.63
2023-05-12T17:47:18.739Z,5.30
2023-05-12T17:49:45.513Z,4.77
2023-05-12T17:52:12.263Z,4.83
2023-05-12T17:54:39.036Z,5.50
2023-05-12T17:57:05.972Z,5.30
2023-05-12T17:59:32.690Z,4.67
2023-05-12T18:01:59.541Z,4.80
2023-05-12T18:04:26.431Z,5.33
2023-05-12T18:06:53.548Z,4.90
2023-05-12T18:09:20.662Z,5.20
2023-05-12T18:11:50.523Z,4.87
2023-05-12T18:14:18.099Z,4.97
2023-05-12T18:16:44.941Z,5.10
2023-05-12T18:19:11.788Z,5.20
2023-05-12T18:21:38.583Z,4.83
2023-05-12T18:24:05.582Z,5.20
2023-05-12T18:26:32.509Z,5.40
2023-05-12T18:28:59.466Z,5.70
2023-05-12T18:31:26.902Z,5.30
2023-05-12T18:33:53.754Z,5.27
2023-05-12T18:36:20.562Z,5.87
2023-05-12T18:38:47.570Z,6.37
2023-05-12T18:41:14.369Z,5.73
2023-05-12T18:43:43.047Z,5.77
2023-05-12T18:46:09.934Z,6.23
2023-05-12T18:48:36.672Z,6.33
2023-05-12T18:51:03.566Z,6.30
2023-05-12T18:53:30.371Z,6.50
2023-05-12T18:55:57.301Z,5.50
2023-05-12T18:58:24.582Z,5.30
2023-05-12T19:00:51.349Z,5.47
2023-05-12T19:03:18.355Z,5.87
2023-05-12T19:05:46.316Z,7.90
2023-05-12T19:08:13.247Z,6.10
2023-05-12T19:10:40.287Z,6.27
2023-05-12T19:13:07.306Z,5.57
2023-05-12T19:15:34.285Z,6.40
2023-05-12T19:18:01.104Z,6.37
2023-05-12T19:20:29.064Z,6.40
2023-05-12T19:22:56.036Z,6.27
2023-05-12T19:25:23.121Z,6.63
2023-05-12T19:27:50.929Z,6.30
2023-05-12T19:30:17.949Z,6.50
2023-05-12T19:32:46.041Z,6.10
2023-05-12T19:35:16.702Z,6.90
2023-05-12T19:37:43.952Z,7.20
2023-05-12T19:40:11.305Z,6.60
2023-05-12T19:42:38.167Z,6.90
2023-05-12T19:45:05.794Z,7.00
2023-05-12T19:47:33.397Z,7.27
2023-05-12T19:50:00.898Z,8.10
2023-05-12T19:52:30.674Z,6.83
2023-05-12T19:54:57.594Z,12.90
2023-05-12T19:57:24.444Z,7.73
2023-05-12T19:59:51.439Z,7.87
2023-05-12T20:02:18.440Z,7.67
2023-05-12T20:04:45.616Z,7.87
2023-05-12T20:07:12.597Z,9.53
2023-05-12T20:09:39.298Z,7.83
2023-05-12T20:12:08.016Z,7.50
2023-05-12T20:14:35.682Z,8.63
2023-05-12T20:17:05.710Z,8.80
2023-05-12T20:19:33.625Z,8.00
2023-05-12T20:22:00.656Z,8.17
2023-05-12T20:24:27.756Z,8.43
2023-05-12T20:26:55.002Z,8.60
2023-05-12T20:29:22.295Z,8.20
2023-05-12T20:31:50.930Z,7.60
2023-05-12T20:34:18.867Z,7.90
2023-05-12T20:36:46.590Z,8.50
2023-05-12T20:39:15.077Z,8.67
2023-05-12T20:41:43.236Z,8.90
2023-05-12T20:44:10.421Z,8.97
2023-05-12T20:46:38.717Z,9.30
2023-05-12T20:49:06.299Z,9.77
2023-05-12T20:51:33.364Z,9.40
2023-05-12T20:54:00.385Z,9.20
2023-05-12T20:56:27.378Z,8.77
2023-05-12T20:58:54.206Z,8.43
2023-05-12T21:01:21.063Z,8.50
2023-05-12T21:03:47.887Z,9.40
2023-05-12T21:06:14.727Z,9.57
2023-05-12T21:08:41.609Z,9.50
2023-05-12T21:11:26.931Z,9.13
2023-05-12T21:13:53.714Z,9.43
2023-05-12T21:16:21.080Z,10.57
2023-05-12T21:18:48.350Z,10.20
2023-05-12T21:21:15.182Z,9.53
2023-05-12T21:23:41.953Z,9.23
2023-05-12T21:26:10.369Z,9.20
2023-05-12T21:28:37.520Z,10.03
2023-05-12T21:31:04.286Z,9.97
2023-05-12T21:33:31.077Z,9.50
2023-05-12T21:35:58.437Z,11.77
2023-05-12T21:38:25.253Z,10.27
2023-05-12T21:40:52.786Z,10.70
2023-05-12T21:43:19.655Z,10.23
2023-05-12T21:45:46.484Z,11.53
2023-05-12T21:48:13.294Z,11.10
2023-05-12T21:50:40.200Z,11.13
2023-05-12T21:53:06.955Z,11.43
2023-05-12T21:55:33.724Z,10.47
2023-05-12T21:58:00.425Z,12.70
2023-05-12T22:00:27.626Z,11.53
2023-05-12T22:02:54.355Z,11.50
2023-05-12T22:05:21.197Z,10.70
2023-05-12T22:07:48.231Z,11.80
2023-05-12T22:10:15.047Z,11.10
2023-05-12T22:12:41.778Z,11.30
2023-05-12T22:15:08.839Z,10.70
2023-05-12T22:17:35.862Z,10.60
2023-05-12T22:20:02.724Z,10.70
2023-05-12T22:22:29.482Z,11.10
2023-05-12T22:24:57.402Z,10.33
2023-05-12T22:27:24.125Z,10.07
2023-05-12T22:29:50.923Z,10.10
2023-05-12T22:32:17.769Z,10.80
2023-05-12T22:34:44.517Z,11.50
2023-05-12T22:37:11.264Z,13.07
2023-05-12T22:39:38.434Z,12.43
2023-05-12T22:42:06.125Z,11.53
2023-05-12T22:44:32.869Z,11.53
2023-05-12T22:46:59.706Z,10.77
2023-05-12T22:49:26.554Z,11.90
2023-05-12T22:51:53.346Z,10.27
2023-05-12T22:54:20.069Z,10.37
2023-05-12T22:56:46.772Z,10.20
2023-05-12T22:59:13.705Z,9.90
2023-05-12T23:01:40.545Z,9.77
2023-05-12T23:04:07.388Z,9.67
2023-05-12T23:06:34.236Z,9.73
2023-05-12T23:09:01.125Z,9.77
2023-05-12T23:11:27.929Z,10.40
2023-05-12T23:13:54.675Z,10.27
2023-05-12T23:16:23.520Z,10.00
2023-05-12T23:18:50.479Z,9.83
2023-05-12T23:21:17.338Z,9.10
2023-05-12T23:23:44.078Z,9.73
2023-05-12T23:26:10.981Z,9.93
2023-05-12T23:28:37.744Z,8.60
2023-05-12T23:31:04.488Z,9.97
2023-05-12T23:33:31.830Z,9.60
2023-05-12T23:35:58.697Z,10.17
2023-05-12T23:38:25.565Z,8.83
2023-05-12T23:40:52.236Z,9.70
2023-05-12T23:43:19.000Z,9.40
2023-05-12T23:45:45.934Z,10.83
2023-05-12T23:48:12.683Z,9.87
2023-05-12T23:50:39.496Z,10.30
2023-05-12T23:53:06.409Z,9.63
2023-05-12T23:55:33.155Z,10.43
2023-05-12T23:58:00.063Z,9.93
